createdAt,value
2023-02-26T00:00:10.000Z,74.2
2023-02-26T00:01:26.000Z,74.2
2023-02-26T00:02:42.490Z,74
2023-02-26T00:03:58.000Z,73.8
2023-02-26T00:05:14.000Z,73.7
2023-02-26T00:06:31.000Z,73.8
2023-02-26T00:07:47.000Z,74
2023-02-26T00:09:03.000Z,74.1
2023-02-26T00:10:19.000Z,74.1
2023-02-26T00:11:35.000Z,74
2023-02-26T00:12:52.000Z,73.9
2023-02-26T00:14:08.000Z,74
2023-02-26T00:15:24.000Z,73.6
2023-02-26T00:16:39.000Z,73.6
2023-02-26T00:17:55.000Z,73.8
2023-02-26T00:19:12.000Z,73.7
2023-02-26T00:20:28.000Z,74
2023-02-26T00:21:44.000Z,73.7
2023-02-26T00:23:00.000Z,73.6
2023-02-26T00:24:16.000Z,73.6
2023-02-26T00:25:33.000Z,73.6
2023-02-26T00:26:49.000Z,73.6
2023-02-26T00:28:05.420Z,73.7
2023-02-26T00:29:21.000Z,73.7
2023-02-26T00:30:37.000Z,73.6
2023-02-26T00:31:54.000Z,73.9
2023-02-26T00:33:09.000Z,74.2
2023-02-26T00:34:25.000Z,74.4
2023-02-26T00:35:41.000Z,74.5
2023-02-26T00:36:57.000Z,74.7
2023-02-26T00:38:14.000Z,74.7
2023-02-26T00:39:30.000Z,74.7
2023-02-26T00:40:46.393Z,74.7
2023-02-26T00:42:02.595Z,74.7
2023-02-26T00:43:18.000Z,74.8
2023-02-26T00:44:35.000Z,74.8
2023-02-26T00:45:51.000Z,74.4
2023-02-26T00:47:07.000Z,74.1
2023-02-26T00:48:23.000Z,74
2023-02-26T00:49:38.000Z,73.4
2023-02-26T00:50:55.000Z,73
2023-02-26T00:52:11.000Z,72.9
2023-02-26T00:53:27.000Z,72.7
2023-02-26T00:54:43.000Z,72.8
2023-02-26T00:55:59.000Z,73.1
2023-02-26T00:57:16.000Z,73.4
2023-02-26T00:58:32.000Z,73.5
2023-02-26T00:59:48.000Z,73.5
2023-02-26T01:01:04.000Z,73.3
2023-02-26T01:02:20.000Z,73.3
2023-02-26T01:03:36.000Z,72.8
2023-02-26T01:04:53.000Z,73.1
2023-02-26T01:06:08.000Z,73.2
2023-02-26T01:07:24.000Z,73
2023-02-26T01:08:40.000Z,72.8
2023-02-26T01:09:56.000Z,72.7
2023-02-26T01:11:13.000Z,72.7
2023-02-26T01:12:29.000Z,72.8
2023-02-26T01:13:45.000Z,72.9
2023-02-26T01:15:01.000Z,72.9
2023-02-26T01:16:17.000Z,72.5
2023-02-26T01:17:34.000Z,72.4
2023-02-26T01:18:50.314Z,72.5
2023-02-26T01:20:06.000Z,72.6
2023-02-26T01:21:22.000Z,72.2
2023-02-26T01:22:37.000Z,72.3
2023-02-26T01:23:54.000Z,72.3
2023-02-26T01:25:10.000Z,72.5
2023-02-26T01:26:26.000Z,72.4
2023-02-26T01:27:42.000Z,72.7
2023-02-26T01:28:58.000Z,72.8
2023-02-26T01:30:14.000Z,72.8
2023-02-26T01:31:30.000Z,72.8
2023-02-26T01:32:46.000Z,72.8
2023-02-26T01:34:02.000Z,72.8
2023-02-26T01:35:18.000Z,72.6
2023-02-26T01:36:35.000Z,72.5
2023-02-26T01:37:51.000Z,72.8
2023-02-26T01:39:07.000Z,72.8
2023-02-26T01:40:23.000Z,73
2023-02-26T01:41:39.000Z,72.8
2023-02-26T01:42:56.000Z,72.9
2023-02-26T01:44:12.000Z,72.9
2023-02-26T01:45:28.000Z,72.5
2023-02-26T01:46:43.000Z,72.5
2023-02-26T01:47:59.000Z,72.7
2023-02-26T01:49:16.000Z,72.8
2023-02-26T01:50:32.000Z,73.1
2023-02-26T01:51:48.000Z,73.2
2023-02-26T01:53:04.000Z,73.4
2023-02-26T01:54:20.000Z,73.6
2023-02-26T01:55:37.000Z,73.7
2023-02-26T01:56:53.238Z,73.7
2023-02-26T01:58:09.432Z,73.8
2023-02-26T01:59:25.000Z,73.8
2023-02-26T02:00:41.000Z,74
2023-02-26T02:01:58.000Z,74.1
2023-02-26T02:03:13.000Z,74
2023-02-26T02:04:29.000Z,74.2
2023-02-26T02:05:45.000Z,74.5
2023-02-26T02:07:01.000Z,74.7
2023-02-26T02:08:18.000Z,74.8
2023-02-26T02:09:34.216Z,74.9
2023-02-26T02:10:50.000Z,74.9
2023-02-26T02:12:06.000Z,75
2023-02-26T02:13:22.000Z,75.1
2023-02-26T02:14:39.000Z,75.1
2023-02-26T02:15:55.000Z,75.2
2023-02-26T02:17:11.000Z,75.4
2023-02-26T02:18:27.000Z,75.4
2023-02-26T02:19:42.000Z,75.3
2023-02-26T02:20:59.000Z,75.2
2023-02-26T02:22:15.000Z,75.5
2023-02-26T02:23:31.000Z,75.3
2023-02-26T02:24:47.000Z,75.2
2023-02-26T02:26:03.000Z,75.3
2023-02-26T02:27:20.000Z,75.3
2023-02-26T02:28:36.000Z,75.6
2023-02-26T02:29:52.000Z,75.9
2023-02-26T02:31:08.000Z,76
2023-02-26T02:32:24.000Z,75.8
2023-02-26T02:33:41.000Z,75.8
2023-02-26T02:34:57.142Z,75.7
2023-02-26T02:36:12.000Z,75.5
2023-02-26T02:37:28.000Z,75.4
2023-02-26T02:38:44.000Z,75.4
2023-02-26T02:40:01.000Z,75.5
2023-02-26T02:41:17.000Z,75.5
2023-02-26T02:42:33.000Z,75.4
2023-02-26T02:43:49.000Z,75.5
2023-02-26T02:45:05.000Z,75.6
2023-02-26T02:46:21.000Z,75.7
2023-02-26T02:47:38.124Z,75.7
2023-02-26T02:48:54.000Z,75.8
2023-02-26T02:50:10.000Z,76
2023-02-26T02:51:26.000Z,75.9
2023-02-26T02:52:41.000Z,75.9
2023-02-26T02:53:58.000Z,75.9
2023-02-26T02:55:14.000Z,75.9
2023-02-26T02:56:30.000Z,75.8
2023-02-26T02:57:46.000Z,75.6
2023-02-26T02:59:02.000Z,75.8
2023-02-26T03:00:19.000Z,75.7
2023-02-26T03:01:35.000Z,75.6
2023-02-26T03:02:51.000Z,75.7
2023-02-26T03:04:07.000Z,75.6
2023-02-26T03:05:23.000Z,76
2023-02-26T03:06:40.000Z,76
2023-02-26T03:07:56.000Z,76.1
2023-02-26T03:09:11.000Z,76
2023-02-26T03:10:27.000Z,75.8
2023-02-26T03:11:43.000Z,75.5
2023-02-26T03:13:00.000Z,75.5
2023-02-26T03:14:16.000Z,75.6
2023-02-26T03:15:32.000Z,75.5
2023-02-26T03:16:48.000Z,75.6
2023-02-26T03:18:04.000Z,75.7
2023-02-26T03:19:21.000Z,75.6
2023-02-26T03:20:37.250Z,75.6
2023-02-26T03:21:53.000Z,75.7
2023-02-26T03:23:09.000Z,75.5
2023-02-26T03:24:25.000Z,75.3
2023-02-26T03:25:41.000Z,75.3
2023-02-26T03:26:57.000Z,75.2
2023-02-26T03:28:13.000Z,74.8
2023-02-26T03:29:29.000Z,74.4
2023-02-26T03:30:45.000Z,74.3
2023-02-26T03:32:02.000Z,74.4
2023-02-26T03:33:18.000Z,74.4
2023-02-26T03:34:34.000Z,74.2
2023-02-26T03:35:50.000Z,74.6
2023-02-26T03:37:06.000Z,74.9
2023-02-26T03:38:23.000Z,74.7
2023-02-26T03:39:39.000Z,74.8
2023-02-26T03:40:55.000Z,74.9
2023-02-26T03:42:10.000Z,74.8
2023-02-26T03:43:26.000Z,74.6
2023-02-26T03:44:43.000Z,74.7
2023-02-26T03:45:59.000Z,74.3
2023-02-26T03:47:15.000Z,74.1
2023-02-26T03:48:31.000Z,73.8
2023-02-26T03:49:47.000Z,73.8
2023-02-26T03:51:04.000Z,73.7
2023-02-26T03:52:20.000Z,73.5
2023-02-26T03:53:36.000Z,73.3
2023-02-26T03:54:52.000Z,73
2023-02-26T03:56:08.000Z,73.4
2023-02-26T03:57:25.000Z,73.5
2023-02-26T03:58:40.000Z,73.8
2023-02-26T03:59:56.000Z,73.9
2023-02-26T04:01:12.000Z,73.9
2023-02-26T04:02:28.000Z,74.2
2023-02-26T04:03:44.959Z,74.6
2023-02-26T04:05:01.000Z,74.6
2023-02-26T04:06:17.000Z,74.6
2023-02-26T04:07:33.000Z,74.7
2023-02-26T04:08:49.000Z,74.8
2023-02-26T04:10:06.000Z,74.8
2023-02-26T04:11:22.000Z,74.8
2023-02-26T04:12:38.000Z,74.8
2023-02-26T04:13:54.000Z,74.6
2023-02-26T04:15:09.000Z,74.3
2023-02-26T04:16:26.000Z,74.2
2023-02-26T04:17:42.000Z,74.3
2023-02-26T04:18:58.000Z,74.1
2023-02-26T04:20:14.000Z,73.8
2023-02-26T04:21:30.000Z,73.8
2023-02-26T04:22:46.000Z,74.2
2023-02-26T04:24:03.000Z,73.9
2023-02-26T04:25:19.000Z,73.8
2023-02-26T04:26:35.000Z,73.6
2023-02-26T04:27:51.000Z,73.6
2023-02-26T04:29:07.000Z,73.5
2023-02-26T04:30:24.000Z,73.5
2023-02-26T04:31:39.000Z,73.3
2023-02-26T04:32:55.000Z,73.1
2023-02-26T04:34:11.000Z,73
2023-02-26T04:35:27.000Z,73.1
2023-02-26T04:36:44.000Z,72.9
2023-02-26T04:38:00.000Z,72.7
2023-02-26T04:39:16.000Z,72.6
2023-02-26T04:40:32.000Z,72.9
2023-02-26T04:41:48.882Z,73
2023-02-26T04:43:05.000Z,73.1
2023-02-26T04:44:21.000Z,73
2023-02-26T04:45:37.000Z,73.2
2023-02-26T04:46:53.000Z,73.3
2023-02-26T04:48:08.000Z,73.2
2023-02-26T04:49:25.000Z,73.4
2023-02-26T04:50:41.000Z,73.5
2023-02-26T04:51:57.000Z,73.8
2023-02-26T04:53:13.000Z,74.1
2023-02-26T04:54:29.000Z,74
2023-02-26T04:55:46.000Z,73.8
2023-02-26T04:57:02.000Z,73.8
2023-02-26T04:58:18.000Z,73.4
2023-02-26T04:59:34.000Z,73.8
2023-02-26T05:00:50.000Z,73.8
2023-02-26T05:02:07.000Z,73.8
2023-02-26T05:03:23.000Z,73.8
2023-02-26T05:04:38.000Z,73.8
2023-02-26T05:05:54.000Z,73.7
2023-02-26T05:07:10.824Z,73.8
2023-02-26T05:08:27.000Z,73.8
2023-02-26T05:09:43.000Z,74
2023-02-26T05:10:59.000Z,74
2023-02-26T05:12:15.000Z,74
2023-02-26T05:13:31.000Z,73.7
2023-02-26T05:14:48.000Z,73.8
2023-02-26T05:16:04.000Z,73.7
2023-02-26T05:17:20.000Z,73.8
2023-02-26T05:18:36.000Z,73.8
2023-02-26T05:19:52.000Z,73.7
2023-02-26T05:21:08.000Z,73.5
2023-02-26T05:22:24.000Z,73.5
2023-02-26T05:23:40.000Z,73.5
2023-02-26T05:24:56.000Z,73.4
2023-02-26T05:26:12.000Z,73.4
2023-02-26T05:27:29.000Z,73.2
2023-02-26T05:28:45.149Z,73.4
2023-02-26T05:30:01.000Z,73.9
2023-02-26T05:31:17.000Z,74.2
2023-02-26T05:32:33.718Z,74.7
2023-02-26T05:33:49.000Z,74.8
2023-02-26T05:35:06.000Z,74.5
2023-02-26T05:36:22.000Z,74.5
2023-02-26T05:37:37.000Z,74.4
2023-02-26T05:38:53.000Z,74.5
2023-02-26T05:40:09.000Z,74.7
2023-02-26T05:41:26.000Z,74.8
2023-02-26T05:42:42.000Z,74.6
2023-02-26T05:43:58.000Z,74.4
2023-02-26T05:45:13.000Z,74
2023-02-26T05:46:29.000Z,74
2023-02-26T05:47:46.000Z,73.8
2023-02-26T05:49:02.000Z,74
2023-02-26T05:50:18.000Z,74.1
2023-02-26T05:51:34.000Z,74.1
2023-02-26T05:52:50.000Z,73.8
2023-02-26T05:54:07.000Z,73.8
2023-02-26T05:55:23.000Z,73.8
2023-02-26T05:56:39.000Z,73.8
2023-02-26T05:57:55.000Z,73.8
2023-02-26T05:59:11.000Z,73.8
2023-02-26T06:00:28.000Z,73.8
2023-02-26T06:01:43.000Z,74.1
2023-02-26T06:02:59.000Z,74
2023-02-26T06:04:15.000Z,73.8
2023-02-26T06:05:31.000Z,73.7
2023-02-26T06:06:48.000Z,73.7
2023-02-26T06:08:04.000Z,73.6
2023-02-26T06:09:20.000Z,73.7
2023-02-26T06:10:36.588Z,73.7
2023-02-26T06:11:52.000Z,74
2023-02-26T06:13:09.000Z,74
2023-02-26T06:14:25.000Z,74.1
2023-02-26T06:15:41.000Z,74.2
2023-02-26T06:16:57.000Z,74.4
2023-02-26T06:18:12.000Z,74.3
2023-02-26T06:19:29.000Z,74.4
2023-02-26T06:20:45.000Z,74.4
2023-02-26T06:22:01.000Z,74.5
2023-02-26T06:23:17.000Z,74.5
2023-02-26T06:24:33.000Z,74.3
2023-02-26T06:25:50.000Z,74.3
2023-02-26T06:27:06.000Z,74.5
2023-02-26T06:28:22.000Z,74.5
2023-02-26T06:29:38.000Z,74.8
2023-02-26T06:30:54.000Z,74.9
2023-02-26T06:32:10.000Z,75
2023-02-26T06:33:27.000Z,74.9
2023-02-26T06:34:42.000Z,75
2023-02-26T06:35:58.000Z,75.1
2023-02-26T06:37:14.000Z,75.4
2023-02-26T06:38:30.000Z,75.4
2023-02-26T06:39:47.000Z,75.4
2023-02-26T06:41:03.000Z,75.3
2023-02-26T06:42:19.000Z,75.3
2023-02-26T06:43:35.000Z,75.2
2023-02-26T06:44:51.000Z,75.2
2023-02-26T06:46:08.000Z,75
2023-02-26T06:47:24.000Z,75
2023-02-26T06:48:40.445Z,75
2023-02-26T06:49:56.000Z,75.2
2023-02-26T06:51:11.000Z,75.3
2023-02-26T06:52:28.000Z,75.4
2023-02-26T06:53:44.000Z,75.3
2023-02-26T06:55:00.000Z,75.4
2023-02-26T06:56:16.000Z,75.4
2023-02-26T06:57:32.000Z,75.4
2023-02-26T06:58:49.000Z,75.3
2023-02-26T07:00:05.000Z,75.3
2023-02-26T07:01:21.000Z,75.1
2023-02-26T07:02:37.000Z,75.2
2023-02-26T07:03:53.000Z,74.8
2023-02-26T07:05:10.000Z,74.5
2023-02-26T07:06:26.000Z,74.6
2023-02-26T07:07:41.000Z,74.6
2023-02-26T07:08:57.000Z,74.7
2023-02-26T07:10:13.000Z,74.7
2023-02-26T07:11:30.000Z,74.8
2023-02-26T07:12:46.000Z,74.9
2023-02-26T07:14:02.000Z,75.1
2023-02-26T07:15:18.000Z,75.3
2023-02-26T07:16:34.000Z,75.4
2023-02-26T07:17:51.000Z,75.6
2023-02-26T07:19:07.000Z,75.6
2023-02-26T07:20:23.000Z,75.4
2023-02-26T07:21:39.000Z,75.3
2023-02-26T07:22:55.000Z,75.1
2023-02-26T07:24:11.000Z,74.8
2023-02-26T07:25:27.000Z,74.9
2023-02-26T07:26:43.304Z,74.9
2023-02-26T07:27:59.000Z,74.9
2023-02-26T07:29:15.000Z,74.9
2023-02-26T07:30:31.000Z,74.8
2023-02-26T07:31:48.000Z,74.7
2023-02-26T07:33:04.000Z,74.7
2023-02-26T07:34:20.000Z,74.1
2023-02-26T07:35:36.000Z,70.5
2023-02-26T07:36:52.000Z,65
2023-02-26T07:38:09.000Z,60.2
2023-02-26T07:39:25.250Z,57.3
2023-02-26T07:40:40.000Z,54.1
2023-02-26T07:41:56.000Z,52.7
2023-02-26T07:43:12.000Z,51
2023-02-26T07:44:29.000Z,49
2023-02-26T07:45:45.000Z,47.5
2023-02-26T07:47:01.000Z,47.2
2023-02-26T07:48:17.000Z,45.9
2023-02-26T07:49:33.000Z,45.7
2023-02-26T07:50:50.000Z,44.8
2023-02-26T07:52:06.000Z,44.4
2023-02-26T07:53:22.000Z,43.5
2023-02-26T07:54:38.000Z,43.8
2023-02-26T07:55:54.000Z,43
2023-02-26T07:57:10.000Z,42.1
2023-02-26T07:58:26.000Z,41.3
2023-02-26T07:59:42.000Z,41.1
2023-02-26T08:00:58.000Z,41.5
2023-02-26T08:02:14.000Z,41.5
2023-02-26T08:03:31.000Z,40.3
2023-02-26T08:04:47.000Z,39.4
2023-02-26T08:06:03.000Z,38.5
2023-02-26T08:07:19.000Z,38.2
2023-02-26T08:08:35.000Z,37.7
2023-02-26T08:09:52.000Z,37.4
2023-02-26T08:11:08.000Z,36.9
2023-02-26T08:12:24.000Z,36.4
2023-02-26T08:13:39.000Z,36.2
2023-02-26T08:14:55.000Z,35.9
2023-02-26T08:16:11.000Z,35.4
2023-02-26T08:17:28.102Z,36
2023-02-26T08:18:44.000Z,35.9
2023-02-26T08:20:00.000Z,35
2023-02-26T08:21:16.000Z,35.4
2023-02-26T08:22:32.000Z,35.2
2023-02-26T08:23:49.000Z,35.4
2023-02-26T08:25:05.000Z,36.1
2023-02-26T08:26:21.000Z,36.2
2023-02-26T08:27:37.000Z,36.2
2023-02-26T08:28:53.000Z,36.1
2023-02-26T08:30:09.072Z,35.4
2023-02-26T08:31:25.000Z,35.1
2023-02-26T08:32:41.000Z,35.3
2023-02-26T08:33:57.000Z,34.9
2023-02-26T08:35:13.000Z,34.6
2023-02-26T08:36:30.000Z,34.2
2023-02-26T08:37:46.000Z,34.2
2023-02-26T08:39:02.000Z,34.3
2023-02-26T08:40:18.000Z,34.4
2023-02-26T08:41:34.000Z,34.6
2023-02-26T08:42:50.998Z,34.4
2023-02-26T08:44:07.000Z,34.7
2023-02-26T08:45:23.000Z,34.8
2023-02-26T08:46:38.000Z,34.1
2023-02-26T08:47:54.000Z,33.5
2023-02-26T08:49:11.000Z,33.2
2023-02-26T08:50:27.000Z,33.4
2023-02-26T08:51:43.000Z,33
2023-02-26T08:52:59.000Z,32.7
2023-02-26T08:54:15.000Z,32.4
2023-02-26T08:55:31.971Z,32.6
2023-02-26T08:56:48.000Z,32.3
2023-02-26T08:58:04.000Z,31.5
2023-02-26T08:59:20.000Z,31.7
2023-02-26T09:00:36.000Z,32.8
2023-02-26T09:01:53.000Z,33.1
2023-02-26T09:03:08.000Z,33.3
2023-02-26T09:04:24.000Z,33.7
2023-02-26T09:05:40.000Z,33.7
2023-02-26T09:06:56.000Z,33.6
2023-02-26T09:08:13.000Z,33.8
2023-02-26T09:09:29.000Z,33.2
2023-02-26T09:10:45.000Z,33.3
2023-02-26T09:12:01.000Z,32.4
2023-02-26T09:13:17.000Z,31.7
2023-02-26T09:14:33.000Z,32.6
2023-02-26T09:15:50.000Z,33.3
2023-02-26T09:17:06.000Z,33.7
2023-02-26T09:18:22.000Z,32.4
2023-02-26T09:19:37.000Z,32.5
2023-02-26T09:20:53.000Z,32.2
2023-02-26T09:22:10.000Z,31
2023-02-26T09:23:26.000Z,30.7
2023-02-26T09:24:42.000Z,31.2
2023-02-26T09:25:58.000Z,31.2
2023-02-26T09:27:14.000Z,30.8
2023-02-26T09:28:31.000Z,31.3
2023-02-26T09:29:47.000Z,31
2023-02-26T09:31:03.000Z,30.5
2023-02-26T09:32:19.000Z,30.6
2023-02-26T09:33:35.000Z,30.4
2023-02-26T09:34:52.000Z,30.3
2023-02-26T09:36:07.000Z,30.3
2023-02-26T09:37:23.000Z,30.8
2023-02-26T09:38:39.000Z,30.4
2023-02-26T09:39:55.000Z,30.9
2023-02-26T09:41:12.000Z,30.2
2023-02-26T09:42:28.000Z,30.1
2023-02-26T09:43:44.000Z,30.2
2023-02-26T09:45:00.000Z,30.5
2023-02-26T09:46:16.783Z,30.9
2023-02-26T09:47:33.000Z,30.7
2023-02-26T09:48:49.000Z,29.8
2023-02-26T09:50:05.000Z,30.4
2023-02-26T09:51:21.000Z,29.6
2023-02-26T09:52:36.000Z,28.9
2023-02-26T09:53:53.000Z,28.7
2023-02-26T09:55:09.000Z,27.8
2023-02-26T09:56:25.000Z,29.4
2023-02-26T09:57:41.000Z,30.8
2023-02-26T09:58:57.000Z,30.4
2023-02-26T10:00:13.000Z,30
2023-02-26T10:01:29.000Z,29.8
2023-02-26T10:02:45.000Z,30
2023-02-26T10:04:01.000Z,30.3
2023-02-26T10:05:17.000Z,30.3
2023-02-26T10:06:34.000Z,29.9
2023-02-26T10:07:50.000Z,28.9
2023-02-26T10:09:06.000Z,27.6
2023-02-26T10:10:22.000Z,28.9
2023-02-26T10:11:38.000Z,29
2023-02-26T10:12:54.000Z,28.3
2023-02-26T10:14:11.000Z,28.9
2023-02-26T10:15:27.000Z,29.3
2023-02-26T10:16:42.000Z,31.4
2023-02-26T10:17:58.000Z,32.1
2023-02-26T10:19:14.000Z,32.9
2023-02-26T10:20:31.000Z,33.1
2023-02-26T10:21:47.000Z,33.3
2023-02-26T10:23:03.000Z,33.9
2023-02-26T10:24:19.673Z,33.9
2023-02-26T10:25:35.000Z,33.6
2023-02-26T10:26:52.000Z,34.7
2023-02-26T10:28:08.000Z,35.8
2023-02-26T10:29:24.000Z,36.9
2023-02-26T10:30:40.000Z,37.3
2023-02-26T10:31:56.000Z,38.6
2023-02-26T10:33:12.000Z,38.9
2023-02-26T10:34:28.000Z,38.2
2023-02-26T10:35:44.000Z,39.1
2023-02-26T10:37:00.000Z,39.6
2023-02-26T10:38:16.000Z,39.6
2023-02-26T10:39:33.000Z,39.6
2023-02-26T10:40:49.000Z,39.9
2023-02-26T10:42:05.000Z,41.6
2023-02-26T10:43:21.000Z,42.1
2023-02-26T10:44:37.000Z,42.3
2023-02-26T10:45:54.000Z,42.8
2023-02-26T10:47:10.000Z,42.6
2023-02-26T10:48:26.000Z,42.9
2023-02-26T10:49:41.000Z,43.1
2023-02-26T10:50:57.000Z,42.6
2023-02-26T10:52:14.000Z,42.6
2023-02-26T10:53:30.000Z,43.6
2023-02-26T10:54:46.000Z,44.1
2023-02-26T10:56:02.000Z,44.5
2023-02-26T10:57:18.000Z,45.5
2023-02-26T10:58:35.000Z,45.6
2023-02-26T10:59:51.000Z,44.6
2023-02-26T11:01:07.000Z,44.1
2023-02-26T11:02:23.500Z,44.8
2023-02-26T11:03:39.000Z,45
2023-02-26T11:04:55.000Z,45.1
2023-02-26T11:06:11.000Z,44.1
2023-02-26T11:07:27.000Z,44.1
2023-02-26T11:08:43.000Z,43.2
2023-02-26T11:09:59.000Z,43.2
2023-02-26T11:11:15.000Z,43.2
2023-02-26T11:12:32.000Z,43.8
2023-02-26T11:13:48.000Z,44.1
2023-02-26T11:15:04.000Z,44.5
2023-02-26T11:16:20.000Z,44.3
2023-02-26T11:17:36.000Z,43.4
2023-02-26T11:18:53.000Z,42.7
2023-02-26T11:20:09.000Z,41.6
2023-02-26T11:21:25.000Z,40.9
2023-02-26T11:22:40.000Z,40.6
2023-02-26T11:23:56.816Z,41
2023-02-26T11:25:13.000Z,39.3
2023-02-26T11:26:29.000Z,39.4
2023-02-26T11:27:45.393Z,38.9
2023-02-26T11:29:01.000Z,39.1
2023-02-26T11:30:17.000Z,39.5
2023-02-26T11:31:34.000Z,40.2
2023-02-26T11:32:50.000Z,39.7
2023-02-26T11:34:06.000Z,39.4
2023-02-26T11:35:22.000Z,39.8
2023-02-26T11:36:38.000Z,39.2
2023-02-26T11:37:55.000Z,39.8
2023-02-26T11:39:10.000Z,39.7
2023-02-26T11:40:26.348Z,40
2023-02-26T11:41:42.000Z,39.6
2023-02-26T11:42:58.000Z,39.6
2023-02-26T11:44:15.000Z,40.2
2023-02-26T11:45:31.000Z,40.3
2023-02-26T11:46:47.000Z,39.7
2023-02-26T11:48:03.000Z,39.9
2023-02-26T11:49:19.000Z,39.5
2023-02-26T11:50:35.000Z,39.5
2023-02-26T11:51:52.000Z,40.2
2023-02-26T11:53:08.272Z,40.2
2023-02-26T11:54:24.000Z,39.4
2023-02-26T11:55:39.000Z,39.4
2023-02-26T11:56:55.000Z,39.3
2023-02-26T11:58:12.000Z,39.1
2023-02-26T11:59:28.000Z,39.3
2023-02-26T12:00:44.000Z,39.9
2023-02-26T12:02:00.000Z,39.3
2023-02-26T12:03:16.000Z,39.4
2023-02-26T12:04:33.000Z,39.6
2023-02-26T12:05:49.000Z,40.7
2023-02-26T12:07:05.000Z,41
2023-02-26T12:08:21.000Z,41.1
2023-02-26T12:09:37.000Z,41.9
2023-02-26T12:10:54.000Z,41.1
2023-02-26T12:12:09.000Z,40.5
2023-02-26T12:13:25.000Z,40.9
2023-02-26T12:14:41.000Z,40.7
2023-02-26T12:15:57.000Z,40.6
2023-02-26T12:17:14.000Z,40.4
2023-02-26T12:18:30.000Z,39.3
2023-02-26T12:19:46.000Z,39.7
2023-02-26T12:21:02.000Z,40.2
2023-02-26T12:22:18.000Z,40.3
2023-02-26T12:23:35.000Z,40
2023-02-26T12:24:51.000Z,40.7
2023-02-26T12:26:07.000Z,40.8
2023-02-26T12:27:23.000Z,40.8
2023-02-26T12:28:38.000Z,41.1
2023-02-26T12:29:55.000Z,41.1
2023-02-26T12:31:11.142Z,41.6
2023-02-26T12:32:27.000Z,41.8
2023-02-26T12:33:43.000Z,41.9
2023-02-26T12:34:59.000Z,41
2023-02-26T12:36:16.000Z,41.3
2023-02-26T12:37:32.000Z,41.8
2023-02-26T12:38:48.000Z,41.9
2023-02-26T12:40:04.000Z,41.8
2023-02-26T12:41:20.000Z,42.5
2023-02-26T12:42:36.000Z,42.9
2023-02-26T12:43:53.064Z,42.4
2023-02-26T12:45:08.000Z,42.1
2023-02-26T12:46:24.000Z,42.5
2023-02-26T12:47:40.000Z,42.7
2023-02-26T12:48:56.000Z,42.9
2023-02-26T12:50:13.000Z,43.2
2023-02-26T12:51:29.000Z,43.6
2023-02-26T12:52:45.000Z,44
2023-02-26T12:54:01.000Z,44.6
2023-02-26T12:55:17.000Z,44.5
2023-02-26T12:56:34.000Z,44.5
2023-02-26T12:57:50.000Z,44
2023-02-26T12:59:06.000Z,44.3
2023-02-26T13:00:22.000Z,44
2023-02-26T13:01:37.000Z,44.7
2023-02-26T13:02:54.000Z,45.2
2023-02-26T13:04:10.000Z,45.6
2023-02-26T13:05:26.000Z,45.7
2023-02-26T13:06:42.000Z,45.8
2023-02-26T13:07:58.000Z,45.5
2023-02-26T13:09:14.986Z,45.8
2023-02-26T13:10:31.000Z,46.2
2023-02-26T13:11:47.000Z,45.3
2023-02-26T13:13:03.000Z,44.5
2023-02-26T13:14:19.000Z,44.1
2023-02-26T13:15:36.000Z,44.8
2023-02-26T13:16:52.000Z,45
2023-02-26T13:18:07.000Z,45.2
2023-02-26T13:19:23.000Z,45.4
2023-02-26T13:20:39.000Z,45.6
2023-02-26T13:21:56.000Z,45.4
2023-02-26T13:23:12.000Z,45.2
2023-02-26T13:24:28.000Z,45
2023-02-26T13:25:44.000Z,45
2023-02-26T13:27:00.000Z,45.3
2023-02-26T13:28:16.000Z,45.9
2023-02-26T13:29:33.000Z,45.8
2023-02-26T13:30:49.000Z,45.6
2023-02-26T13:32:05.000Z,46
2023-02-26T13:33:21.000Z,46
2023-02-26T13:34:36.000Z,46
2023-02-26T13:35:53.000Z,45.8
2023-02-26T13:37:09.000Z,45.5
2023-02-26T13:38:25.000Z,45.5
2023-02-26T13:39:41.000Z,45.8
2023-02-26T13:40:57.000Z,45.6
2023-02-26T13:42:14.000Z,46.1
2023-02-26T13:43:30.000Z,46.5
2023-02-26T13:44:46.000Z,45.5
2023-02-26T13:46:02.000Z,45.5
2023-02-26T13:47:18.000Z,45.7
2023-02-26T13:48:35.000Z,45.4
2023-02-26T13:49:51.000Z,44.9
2023-02-26T13:51:06.000Z,44.9
2023-02-26T13:52:22.000Z,45.3
2023-02-26T13:53:38.000Z,45
2023-02-26T13:54:55.000Z,44.8
2023-02-26T13:56:11.000Z,45.1
2023-02-26T13:57:27.000Z,45.2
2023-02-26T13:58:43.000Z,45.4
2023-02-26T13:59:59.852Z,45.5
2023-02-26T14:01:16.000Z,45.5
2023-02-26T14:02:32.243Z,46.1
2023-02-26T14:03:48.000Z,46
2023-02-26T14:05:04.000Z,45.5
2023-02-26T14:06:20.000Z,45.6
2023-02-26T14:07:36.000Z,45.4
2023-02-26T14:08:52.000Z,45.6
2023-02-26T14:10:08.000Z,45.9
2023-02-26T14:11:24.000Z,45.6
2023-02-26T14:12:40.000Z,45
2023-02-26T14:13:57.000Z,45.2
2023-02-26T14:15:12.000Z,44.6
2023-02-26T14:16:28.000Z,44.4
2023-02-26T14:17:44.000Z,44.6
2023-02-26T14:19:00.000Z,44.6
2023-02-26T14:20:17.000Z,44.7
2023-02-26T14:21:33.000Z,45
2023-02-26T14:22:49.000Z,45.1
2023-02-26T14:24:05.000Z,45
2023-02-26T14:25:21.000Z,45.3
2023-02-26T14:26:37.000Z,45.2
2023-02-26T14:27:54.000Z,45.5
2023-02-26T14:29:10.000Z,45.9
2023-02-26T14:30:26.000Z,45.8
2023-02-26T14:31:41.739Z,46
2023-02-26T14:32:57.000Z,45.9
2023-02-26T14:34:14.000Z,45.6
2023-02-26T14:35:30.000Z,45.3
2023-02-26T14:36:46.000Z,44.5
2023-02-26T14:38:02.706Z,44.1
2023-02-26T14:39:18.000Z,44
2023-02-26T14:40:35.000Z,44.2
2023-02-26T14:41:51.000Z,44
2023-02-26T14:43:07.000Z,44
2023-02-26T14:44:23.000Z,44.1
2023-02-26T14:45:39.000Z,43.9
2023-02-26T14:46:56.000Z,44
2023-02-26T14:48:11.000Z,44.5
2023-02-26T14:49:27.000Z,44.4
2023-02-26T14:50:43.000Z,44.8
2023-02-26T14:51:59.000Z,44.6
2023-02-26T14:53:16.000Z,44.5
2023-02-26T14:54:32.000Z,44.5
2023-02-26T14:55:48.000Z,44.6
2023-02-26T14:57:04.000Z,44.5
2023-02-26T14:58:20.000Z,44.8
2023-02-26T14:59:37.000Z,44.1
2023-02-26T15:00:53.000Z,44.2
2023-02-26T15:02:09.000Z,44.5
2023-02-26T15:03:25.000Z,44.7
2023-02-26T15:04:40.000Z,44.9
2023-02-26T15:05:57.000Z,45.3
2023-02-26T15:07:13.000Z,45.6
2023-02-26T15:08:29.000Z,45.6
2023-02-26T15:09:45.000Z,45.7
2023-02-26T15:11:01.000Z,46
2023-02-26T15:12:18.000Z,46.3
2023-02-26T15:13:34.000Z,46.3
2023-02-26T15:14:50.000Z,46.4
2023-02-26T15:16:06.585Z,46.6
2023-02-26T15:17:22.000Z,46.7
2023-02-26T15:18:39.000Z,46.7
2023-02-26T15:19:55.000Z,46.7
2023-02-26T15:21:10.000Z,47
2023-02-26T15:22:26.000Z,46.6
2023-02-26T15:23:42.000Z,46.1
2023-02-26T15:24:59.000Z,45.6
2023-02-26T15:26:15.000Z,45
2023-02-26T15:27:31.000Z,45.1
2023-02-26T15:28:47.565Z,45.4
2023-02-26T15:30:03.000Z,45.1
2023-02-26T15:31:19.944Z,45.6
2023-02-26T15:32:36.000Z,45.9
2023-02-26T15:33:52.000Z,46.2
2023-02-26T15:35:08.000Z,46.5
2023-02-26T15:36:24.000Z,46.7
2023-02-26T15:37:39.000Z,46.9
2023-02-26T15:38:56.000Z,47.6
2023-02-26T15:40:12.000Z,47.5
2023-02-26T15:41:28.000Z,47.6
2023-02-26T15:42:44.000Z,47.8
2023-02-26T15:44:00.000Z,48
2023-02-26T15:45:17.000Z,48.1
2023-02-26T15:46:33.000Z,48.5
2023-02-26T15:47:49.000Z,48.4
2023-02-26T15:49:05.000Z,48.4
2023-02-26T15:50:21.000Z,48.7
2023-02-26T15:51:38.000Z,48.7
2023-02-26T15:52:54.000Z,49.2
2023-02-26T15:54:09.000Z,49.4
2023-02-26T15:55:25.000Z,49.5
2023-02-26T15:56:41.000Z,49.3
2023-02-26T15:57:58.000Z,49.1
2023-02-26T15:59:14.000Z,49.8
2023-02-26T16:00:30.000Z,49.9
2023-02-26T16:01:46.000Z,50.1
2023-02-26T16:03:02.000Z,50.1
2023-02-26T16:04:19.000Z,49.8
2023-02-26T16:05:35.000Z,49.4
2023-02-26T16:06:51.443Z,49.6
2023-02-26T16:08:07.000Z,49.5
2023-02-26T16:09:23.000Z,49.4
2023-02-26T16:10:39.000Z,49.8
2023-02-26T16:11:55.000Z,49.7
2023-02-26T16:13:11.000Z,49.9
2023-02-26T16:14:27.000Z,49.8
2023-02-26T16:15:43.000Z,49.5
2023-02-26T16:17:00.000Z,49.5
2023-02-26T16:18:16.000Z,49.4
2023-02-26T16:19:32.430Z,49.6
2023-02-26T16:20:48.000Z,50
2023-02-26T16:22:04.000Z,50.2
2023-02-26T16:23:21.000Z,50.2
2023-02-26T16:24:37.000Z,50.4
2023-02-26T16:25:53.000Z,50.5
2023-02-26T16:27:08.000Z,50.7
2023-02-26T16:28:24.000Z,50.9
2023-02-26T16:29:41.000Z,50.9
2023-02-26T16:30:57.000Z,51
2023-02-26T16:32:13.385Z,51.1
2023-02-26T16:33:29.000Z,51.3
2023-02-26T16:34:45.000Z,51.3
2023-02-26T16:36:02.000Z,51.3
2023-02-26T16:37:18.000Z,51.5
2023-02-26T16:38:34.000Z,51.6
2023-02-26T16:39:50.000Z,51.8
2023-02-26T16:41:06.000Z,51.6
2023-02-26T16:42:22.000Z,51.7
2023-02-26T16:43:38.000Z,51.7
2023-02-26T16:44:54.366Z,51.6
2023-02-26T16:46:10.000Z,51.7
2023-02-26T16:47:26.000Z,52.4
2023-02-26T16:48:42.000Z,52.3
2023-02-26T16:49:59.000Z,52.1
2023-02-26T16:51:15.000Z,51.9
2023-02-26T16:52:31.000Z,52.1
2023-02-26T16:53:47.000Z,52.3
2023-02-26T16:55:03.000Z,52.9
2023-02-26T16:56:20.000Z,52.7
2023-02-26T16:57:36.000Z,53
2023-02-26T16:58:52.000Z,54.1